createdAt,value
2023-04-20T00:04:38.250Z,5.10
2023-04-20T00:09:42.060Z,5.09
2023-04-20T00:14:45.977Z,5.13
2023-04-20T00:19:50.377Z,5.13
2023-04-20T00:24:54.190Z,5.14
2023-04-20T00:29:58.103Z,5.16
2023-04-20T00:35:01.846Z,5.19
2023-04-20T00:40:07.161Z,5.20
2023-04-20T00:45:11.056Z,5.21
2023-04-20T00:50:16.111Z,5.23
2023-04-20T00:55:21.208Z,5.21
2023-04-20T01:00:25.970Z,5.22
2023-04-20T01:05:29.807Z,5.21
2023-04-20T01:10:33.668Z,5.23
2023-04-20T01:15:37.725Z,5.24
2023-04-20T01:20:41.737Z,5.24
2023-04-20T01:25:45.617Z,5.21
2023-04-20T01:30:51.831Z,5.19
2023-04-20T01:35:55.600Z,5.19
2023-04-20T01:40:59.893Z,5.18
2023-04-20T01:46:05.418Z,5.18
2023-04-20T01:51:10.009Z,5.20
2023-04-20T01:56:13.720Z,5.20
2023-04-20T02:01:17.597Z,5.21
2023-04-20T02:06:21.386Z,5.22
2023-04-20T02:11:25.620Z,5.21
2023-04-20T02:16:29.576Z,5.22
2023-04-20T02:21:33.307Z,5.21
2023-04-20T02:26:37.108Z,5.23
2023-04-20T02:31:40.902Z,5.24
2023-04-20T02:36:44.986Z,5.24
2023-04-20T02:41:49.471Z,5.25
2023-04-20T02:46:54.168Z,5.25
2023-04-20T02:51:58.585Z,5.22
2023-04-20T02:57:03.892Z,5.21
2023-04-20T03:02:07.806Z,5.19
2023-04-20T03:07:13.059Z,5.18
2023-04-20T03:12:19.036Z,5.20
2023-04-20T03:17:31.894Z,5.21
2023-04-20T03:22:36.545Z,5.23
2023-04-20T03:27:40.300Z,5.27
2023-04-20T03:32:47.471Z,5.26
2023-04-20T03:37:51.400Z,5.24
2023-04-20T03:42:55.165Z,5.25
2023-04-20T03:47:58.944Z,5.25
2023-04-20T03:53:03.309Z,5.28
2023-04-20T03:58:07.843Z,5.29
2023-04-20T04:03:22.423Z,5.30
2023-04-20T04:08:27.221Z,5.33
2023-04-20T04:13:33.876Z,5.33
2023-04-20T04:18:48.522Z,5.37
2023-04-20T04:23:54.529Z,5.40
2023-04-20T04:29:20.997Z,5.45
2023-04-20T04:34:30.231Z,5.48
2023-04-20T04:39:34.557Z,5.57
2023-04-20T04:44:45.480Z,5.65
2023-04-20T04:49:53.315Z,5.72
2023-04-20T04:54:57.236Z,5.81
2023-04-20T05:00:00.889Z,5.90
2023-04-20T05:05:04.931Z,6.01
2023-04-20T05:10:09.106Z,6.06
2023-04-20T05:15:12.808Z,6.11
2023-04-20T05:20:16.506Z,6.14
2023-04-20T05:25:20.518Z,6.19
2023-04-20T05:30:24.386Z,6.23
2023-04-20T05:35:28.184Z,6.31
2023-04-20T05:40:32.559Z,6.40
2023-04-20T05:45:36.398Z,6.45
2023-04-20T05:50:40.161Z,6.51
2023-04-20T05:55:43.842Z,6.51
2023-04-20T06:00:48.010Z,6.55
2023-04-20T06:05:51.940Z,6.60
2023-04-20T06:10:59.940Z,6.66
2023-04-20T06:16:03.870Z,6.69
2023-04-20T06:21:11.547Z,6.75
2023-04-20T06:26:15.329Z,6.80
2023-04-20T06:31:22.303Z,6.85
2023-04-20T06:36:26.075Z,6.95
2023-04-20T06:41:29.696Z,7.11
2023-04-20T06:46:33.386Z,7.24
2023-04-20T06:51:37.098Z,7.41
2023-04-20T06:56:56.924Z,7.54
2023-04-20T07:02:00.686Z,7.69
2023-04-20T07:07:04.558Z,7.92
2023-04-20T07:12:08.699Z,8.01
2023-04-20T07:17:12.366Z,8.26
2023-04-20T07:22:16.158Z,8.49
2023-04-20T07:27:19.886Z,8.63
2023-04-20T07:32:24.010Z,8.72
2023-04-20T07:37:27.997Z,8.83
2023-04-20T07:42:34.160Z,8.83
2023-04-20T07:47:38.335Z,8.98
2023-04-20T07:52:42.234Z,9.22
2023-04-20T07:57:46.422Z,9.35
2023-04-20T08:02:50.361Z,9.39
2023-04-20T08:07:54.224Z,9.44
2023-04-20T08:12:57.941Z,9.57
2023-04-20T08:18:01.547Z,9.58
2023-04-20T08:23:05.155Z,9.56
2023-04-20T08:28:12.237Z,9.65
2023-04-20T08:33:23.407Z,9.69
2023-04-20T08:38:33.953Z,9.74
2023-04-20T08:43:38.136Z,9.72
2023-04-20T08:48:42.644Z,9.81
2023-04-20T08:53:46.367Z,10.00
2023-04-20T08:58:50.156Z,10.07
2023-04-20T09:03:53.891Z,10.36
2023-04-20T09:08:57.805Z,10.74
2023-04-20T09:14:10.607Z,11.05
2023-04-20T09:19:14.992Z,11.18
2023-04-20T09:24:23.704Z,11.35
2023-04-20T09:29:28.245Z,11.56
2023-04-20T09:34:32.193Z,11.75
2023-04-20T09:39:37.693Z,12.05
2023-04-20T09:44:41.714Z,12.39
2023-04-20T09:49:47.580Z,12.67
2023-04-20T09:54:52.048Z,12.92
2023-04-20T09:59:57.800Z,13.07
2023-04-20T10:05:02.536Z,13.48
2023-04-20T10:10:12.761Z,13.57
2023-04-20T10:15:17.447Z,13.62
2023-04-20T10:20:25.725Z,13.68
2023-04-20T10:25:29.470Z,13.83
2023-04-20T10:30:34.438Z,13.97
2023-04-20T10:35:44.540Z,14.24
2023-04-20T10:40:49.554Z,14.35
2023-04-20T10:45:53.794Z,14.47
2023-04-20T10:50:58.490Z,14.86
2023-04-20T10:56:02.499Z,14.95
2023-04-20T11:01:06.445Z,14.61
2023-04-20T11:06:10.352Z,14.49
2023-04-20T11:11:25.820Z,14.19
2023-04-20T11:16:44.334Z,14.31
2023-04-20T11:21:53.469Z,14.60
2023-04-20T11:26:58.474Z,14.68
2023-04-20T11:32:05.009Z,14.91
2023-04-20T11:37:10.933Z,15.13
2023-04-20T11:42:14.855Z,15.41
2023-04-20T11:47:18.586Z,15.58
2023-04-20T11:52:22.582Z,15.53
2023-04-20T11:57:26.584Z,15.43
2023-04-20T12:02:30.496Z,15.41
2023-04-20T12:07:34.477Z,15.45
2023-04-20T12:12:38.786Z,15.90
2023-04-20T12:17:42.480Z,16.33
2023-04-20T12:22:46.252Z,16.38
2023-04-20T12:27:50.127Z,16.65
2023-04-20T12:32:53.890Z,16.96
2023-04-20T12:37:57.694Z,17.51
2023-04-20T12:43:01.442Z,17.71
2023-04-20T12:48:05.547Z,17.94
2023-04-20T12:53:09.208Z,17.85
2023-04-20T12:58:13.063Z,17.70
2023-04-20T13:03:17.417Z,17.45
2023-04-20T13:08:22.132Z,17.24
2023-04-20T13:13:26.017Z,17.02
2023-04-20T13:18:29.790Z,17.12
2023-04-20T13:23:33.593Z,17.56
2023-04-20T13:28:38.130Z,17.84
2023-04-20T13:33:41.788Z,17.95
2023-04-20T13:38:45.744Z,18.07
2023-04-20T13:43:49.880Z,18.32
2023-04-20T13:48:53.557Z,18.48
2023-04-20T13:53:57.276Z,18.23
2023-04-20T13:59:04.392Z,17.49
2023-04-20T14:04:10.496Z,17.21
2023-04-20T14:09:14.362Z,17.29
2023-04-20T14:14:18.339Z,17.72
2023-04-20T14:19:22.434Z,17.76
2023-04-20T14:24:26.391Z,17.46
2023-04-20T14:29:30.122Z,17.25
2023-04-20T14:34:34.050Z,17.28
2023-04-20T14:39:37.848Z,17.72
2023-04-20T14:44:41.739Z,17.82
2023-04-20T14:49:45.564Z,17.75
2023-04-20T14:54:49.346Z,17.70
2023-04-20T14:59:53.256Z,17.59
2023-04-20T15:04:58.491Z,17.57
2023-04-20T15:10:02.579Z,17.39
2023-04-20T15:15:07.758Z,17.20
2023-04-20T15:20:12.351Z,16.99
2023-04-20T15:25:16.079Z,16.86
2023-04-20T15:30:21.670Z,17.00
2023-04-20T15:35:25.475Z,16.97
2023-04-20T15:40:29.582Z,16.82
2023-04-20T15:45:33.416Z,16.71
2023-04-20T15:50:37.831Z,16.63
2023-04-20T15:55:41.621Z,16.67
2023-04-20T16:00:45.310Z,16.68
2023-04-20T16:05:50.353Z,16.64
2023-04-20T16:10:55.328Z,16.67
2023-04-20T16:15:59.344Z,16.64
2023-04-20T16:21:03.778Z,16.65
2023-04-20T16:26:07.775Z,16.63
2023-04-20T16:31:12.041Z,16.62
2023-04-20T16:36:16.959Z,16.52
2023-04-20T16:41:21.340Z,16.40
2023-04-20T16:46:25.455Z,16.43
2023-04-20T16:51:29.710Z,16.77
2023-04-20T16:56:33.326Z,17.34
2023-04-20T17:01:37.285Z,17.62
2023-04-20T17:06:41.320Z,17.47
2023-04-20T17:11:45.277Z,16.84
2023-04-20T17:16:51.209Z,16.20
2023-04-20T17:21:55.340Z,15.75
2023-04-20T17:26:59.060Z,15.43
2023-04-20T17:32:03.462Z,15.20
2023-04-20T17:37:08.104Z,14.95
2023-04-20T17:42:13.066Z,14.74
2023-04-20T17:47:16.999Z,14.53
2023-04-20T17:52:25.543Z,14.34
2023-04-20T17:57:29.887Z,14.15
2023-04-20T18:02:34.342Z,13.97
2023-04-20T18:07:41.815Z,13.77
2023-04-20T18:12:47.064Z,13.57
2023-04-20T18:17:52.780Z,13.38
2023-04-20T18:23:00.156Z,13.24
2023-04-20T18:28:06.851Z,13.15
2023-04-20T18:33:17.017Z,13.06
2023-04-20T18:38:27.831Z,13.00
2023-04-20T18:43:32.722Z,12.91
2023-04-20T18:48:37.818Z,12.79
2023-04-20T18:53:44.208Z,12.70
2023-04-20T18:58:51.841Z,12.63
2023-04-20T19:03:58.243Z,12.65
2023-04-20T19:09:04.449Z,12.61
2023-04-20T19:14:11.272Z,12.55
2023-04-20T19:19:17.879Z,12.48
2023-04-20T19:24:23.541Z,12.35
2023-04-20T19:29:30.132Z,12.23
2023-04-20T19:34:35.038Z,12.11
2023-04-20T19:39:47.610Z,11.98
2023-04-20T19:44:53.883Z,11.89
2023-04-20T19:49:58.836Z,11.88
2023-04-20T19:55:05.639Z,11.82
2023-04-20T20:00:15.603Z,11.85
2023-04-20T20:05:23.844Z,11.86
2023-04-20T20:10:31.147Z,11.81
2023-04-20T20:15:37.977Z,11.76
2023-04-20T20:20:43.160Z,11.69
2023-04-20T20:25:46.943Z,11.58
2023-04-20T20:30:51.270Z,11.53
2023-04-20T20:35:56.427Z,11.49
2023-04-20T20:41:03.734Z,11.38
2023-04-20T20:46:09.684Z,11.27
2023-04-20T20:51:14.052Z,11.14
2023-04-20T20:56:17.822Z,10.99
2023-04-20T21:01:21.818Z,10.87
2023-04-20T21:06:25.715Z,10.74
2023-04-20T21:11:29.450Z,10.60
2023-04-20T21:16:33.790Z,10.50
2023-04-20T21:21:38.394Z,10.38
2023-04-20T21:26:42.281Z,10.25
2023-04-20T21:31:46.020Z,10.20
2023-04-20T21:36:49.777Z,10.19
2023-04-20T21:41:53.530Z,10.20
2023-04-20T21:46:57.674Z,10.16
2023-04-20T21:52:01.427Z,10.11
2023-04-20T21:57:05.372Z,10.13
2023-04-20T22:02:09.087Z,10.13
2023-04-20T22:07:12.851Z,10.02
2023-04-20T22:12:18.123Z,9.98
2023-04-20T22:17:24.060Z,9.93
2023-04-20T22:22:27.713Z,9.86
2023-04-20T22:27:33.814Z,9.80
2023-04-20T22:32:39.032Z,9.71
2023-04-20T22:37:43.004Z,9.65
2023-04-20T22:42:46.665Z,9.56
2023-04-20T22:47:50.392Z,9.51
2023-04-20T22:52:54.287Z,9.47
2023-04-20T22:57:57.896Z,9.50
2023-04-20T23:03:01.788Z,9.56
2023-04-20T23:08:07.030Z,9.50
2023-04-20T23:13:16.957Z,9.48
2023-04-20T23:18:20.676Z,9.53
2023-04-20T23:23:24.266Z,9.60
2023-04-20T23:28:28.065Z,9.70
2023-04-20T23:33:31.800Z,9.72
2023-04-20T23:38:35.501Z,9.75
2023-04-20T23:43:39.867Z,9.77
2023-04-20T23:48:43.615Z,9.78
2023-04-20T23:53:47.343Z,9.74
2023-04-20T23:58:51.363Z,9.78
